Date,TemperatureHighF,TemperatureAvgF,TemperatureLowF,DewpointHighF,DewpointAvgF,DewpointLowF,HumidityHigh,HumidityAvg,HumidityLow,PressureMaxIn,PressureMinIn,WindSpeedMaxMPH,WindSpeedAvgMPH,GustSpeedMaxMPH,PrecipitationSumIn
2013-4-1,39,31,23,-100,-100,-100,0,0,100,0.00,40.00,0,-999,0,0.00
2013-4-2,48,36,25,-100,-100,-100,0,0,100,0.00,40.00,0,-999,0,0.00
2013-4-3,59,42,29,-100,-100,-100,0,0,100,0.00,40.00,0,-999,0,0.00
2013-4-4,66,46,33,-100,-100,-100,0,0,100,0.00,40.00,0,-999,0,0.00
2013-4-5,66,50,32,-100,-100,-100,0,0,100,0.00,40.00,0,-999,0,0.00
2013-4-6,73,57,48,-100,-100,-100,0,0,100,0.00,40.00,0,-999,0,0.00
2013-4-7,71,52,35,-100,-100,-100,0,0,100,0.00,40.00,0,-999,0,0.00
2013-4-8,80,64,50,-100,-100,-100,0,0,100,0.00,40.00,0,-999,0,0.00
2013-4-9,64,52,42,-100,-100,-100,0,0,100,0.00,40.00,0,-999,0,0.00
2013-4-10,42,41,39,-100,-100,-100,0,0,100,0.00,40.00,0,-999,0,0.00
2013-4-11,48,42,39,-100,-100,-100,0,0,100,0.00,40.00,0,-999,0,0.00
2013-4-12,42,38,35,-100,-100,-100,0,0,100,0.00,40.00,0,-999,0,0.00
2013-4-13,57,43,32,-100,-100,-100,0,0,100,0.00,40.00,0,-999,0,0.00
2013-4-14,68,53,42,-100,-100,-100,0,0,100,0.00,40.00,0,-999,0,0.00
2013-4-15,53,44,41,-100,-100,-100,0,0,100,0.00,40.00,0,-999,0,0.00
2013-4-16,55,44,35,-100,-100,-100,0,0,100,0.00,40.00,0,-999,0,0.00
2013-4-17,46,43,41,-100,-100,-100,0,0,100,0.00,40.00,0,-999,0,0.00
2013-4-18,42,39,35,-100,-100,-100,0,0,100,0.00,40.00,0,-999,0,0.00
2013-4-19,46,38,32,-100,-100,-100,0,0,100,0.00,40.00,0,-999,0,0.00
2013-4-20,57,41,29,-100,-100,-100,0,0,100,0.00,40.00,0,-999,0,0.00
2013-4-21,71,55,42,-100,-100,-100,0,0,100,0.00,40.00,0,-999,0,0.00
2013-4-22,75,56,39,-100,-100,-100,0,0,100,0.00,40.00,0,-999,0,0.00
2013-4-23,46,38,33,-100,-100,-100,0,0,100,0.00,40.00,0,-999,0,0.00
2013-4-24,60,44,29,-100,-100,-100,0,0,100,0.00,40.00,0,-999,0,0.00
2013-4-25,71,51,33,-100,-100,-100,0,0,100,0.00,40.00,0,-999,0,0.00
2013-4-26,75,60,48,-100,-100,-100,0,0,100,0.00,40.00,0,-999,0,0.00
2013-4-27,78,56,42,-100,-100,-100,0,0,100,0.00,40.00,0,-999,0,0.00
2013-4-28,82,62,44,-100,-100,-100,0,0,100,0.00,40.00,0,-999,0,0.00
2013-4-29,89,70,53,-100,-100,-100,0,0,100,0.00,40.00,0,-999,0,0.00
2013-4-30,91,76,62,-100,-100,-100,0,0,100,0.00,40.00,0,-999,0,0.00